Terminal Aerodrome Forecast
Issued by NWS Louisville, KY

Home | Current Version | Previous Version | Text Only | Print | Product List | Glossary On
Versions: 1 2 3 4 5 6 7 8 9 10 11 12 13 14 15 16 17 18
000
FTUS43 KLMK 232000 AAA
TAFLEX
TAF AMD
KLEX 232030Z 2321/2418 26007KT P6SM SCT050
     FM240400 33005KT P6SM VCSH BKN025
     FM240900 34006KT 4SM -DZ BR BKN008
     FM241500 02008KT P6SM BKN025=

USA.gov is the U.S. government's official web portal to all federal, state and local government web resources and services.